createdAt,value
2022-08-05T00:00:17.287Z,9.05
2022-08-05T00:02:50.913Z,10.65
2022-08-05T00:06:02.941Z,8.68
2022-08-05T00:08:26.445Z,9.18
2022-08-05T00:11:00.765Z,9.68
2022-08-05T00:13:40.125Z,6.97
2022-08-05T00:16:14.734Z,8.55
2022-08-05T00:18:45.917Z,7.18
2022-08-05T00:21:16.737Z,7.90
2022-08-05T00:23:53.595Z,11.45
2022-08-05T00:26:34.081Z,8.95
2022-08-05T00:29:01.324Z,7.10
2022-08-05T00:31:53.109Z,7.40
2022-08-05T00:34:54.817Z,8.65
2022-08-05T00:37:13.177Z,8.65
2022-08-05T00:39:57.310Z,9.07
2022-08-05T00:42:38.685Z,7.80
2022-08-05T00:45:11.528Z,8.82
2022-08-05T00:47:53.184Z,9.40
2022-08-05T00:50:25.365Z,8.52
2022-08-05T00:52:54.983Z,9.02
2022-08-05T00:55:23.147Z,8.25
2022-08-05T00:58:01.648Z,7.97
2022-08-05T01:00:35.173Z,7.10
2022-08-05T01:03:02.392Z,6.78
2022-08-05T01:05:35.279Z,9.45
2022-08-05T01:08:39.225Z,9.75
2022-08-05T01:11:04.511Z,8.95
2022-08-05T01:13:58.890Z,10.70
2022-08-05T01:17:04.690Z,9.23
2022-08-05T01:20:01.854Z,10.35
2022-08-05T01:22:58.575Z,9.60
2022-08-05T01:25:57.787Z,9.93
2022-08-05T01:28:33.234Z,9.25
2022-08-05T01:31:22.293Z,10.32
2022-08-05T01:34:02.683Z,9.13
2022-08-05T01:36:36.074Z,7.53
2022-08-05T01:39:11.819Z,8.95
2022-08-05T01:41:44.389Z,5.88
2022-08-05T01:44:12.980Z,7.60
2022-08-05T01:46:46.595Z,10.38
2022-08-05T01:49:24.119Z,8.38
2022-08-05T01:51:58.454Z,7.60
2022-08-05T01:54:48.441Z,7.07
2022-08-05T01:58:29.195Z,9.57
2022-08-05T02:00:13.698Z,8.57
2022-08-05T02:02:54.434Z,6.55
2022-08-05T02:05:34.092Z,7.63
2022-08-05T02:08:02.068Z,7.70
2022-08-05T02:10:36.775Z,6.10
2022-08-05T02:13:16.795Z,7.05
2022-08-05T02:15:57.603Z,8.00
2022-08-05T02:18:35.223Z,6.88
2022-08-05T02:21:14.683Z,7.03
2022-08-05T02:23:46.244Z,7.28
2022-08-05T02:26:17.184Z,7.53
2022-08-05T02:28:47.658Z,6.53
2022-08-05T02:31:23.100Z,5.15
2022-08-05T02:34:13.596Z,6.10
2022-08-05T02:36:51.517Z,8.23
2022-08-05T02:39:23.078Z,6.00
2022-08-05T02:42:00.971Z,7.73
2022-08-05T02:44:31.643Z,7.60
2022-08-05T02:47:01.173Z,6.90
2022-08-05T02:49:36.915Z,6.93
2022-08-05T02:52:29.666Z,6.07
2022-08-05T02:55:01.830Z,5.67
2022-08-05T02:58:11.378Z,7.75
2022-08-05T03:00:20.923Z,5.50
2022-08-05T03:02:49.294Z,7.97
2022-08-05T03:05:21.956Z,5.93
2022-08-05T03:08:09.416Z,7.47
2022-08-05T03:10:36.884Z,8.48
2022-08-05T03:13:16.576Z,7.38
2022-08-05T03:15:45.435Z,6.30
2022-08-05T03:18:13.062Z,7.75
2022-08-05T03:20:48.984Z,7.05
2022-08-05T03:23:17.953Z,5.97
2022-08-05T03:26:30.104Z,6.40
2022-08-05T03:28:32.951Z,5.40
2022-08-05T03:31:01.275Z,7.35
2022-08-05T03:33:42.222Z,6.38
2022-08-05T03:36:16.757Z,5.70
2022-08-05T03:38:58.007Z,6.25
2022-08-05T03:41:25.203Z,9.48
2022-08-05T03:44:10.273Z,8.10
2022-08-05T03:46:39.195Z,5.85
2022-08-05T03:49:06.625Z,7.22
2022-08-05T03:52:38.697Z,5.85
2022-08-05T03:56:09.339Z,6.70
2022-08-05T03:57:58.743Z,4.82
2022-08-05T04:00:31.241Z,5.45
2022-08-05T04:03:02.737Z,6.63
2022-08-05T04:05:35.013Z,7.30
2022-08-05T04:08:30.271Z,5.70
2022-08-05T04:10:53.329Z,5.00
2022-08-05T04:13:21.610Z,4.65
2022-08-05T04:16:02.870Z,5.65
2022-08-05T04:18:32.223Z,5.38
2022-08-05T04:21:03.996Z,4.93
2022-08-05T04:24:05.163Z,3.97
2022-08-05T04:26:20.124Z,5.60
2022-08-05T04:28:51.157Z,5.43
2022-08-05T04:31:19.952Z,4.45
2022-08-05T04:34:17.871Z,5.72
2022-08-05T04:36:44.846Z,6.57
2022-08-05T04:39:13.728Z,5.77
2022-08-05T04:41:41.159Z,6.43
2022-08-05T04:44:09.550Z,5.63
2022-08-05T04:46:38.397Z,4.78
2022-08-05T04:49:14.395Z,5.30
2022-08-05T04:51:44.964Z,5.87
2022-08-05T04:54:12.494Z,4.97
2022-08-05T04:56:40.103Z,4.77
2022-08-05T04:59:23.937Z,4.53
2022-08-05T05:02:08.232Z,5.40
2022-08-05T05:04:47.574Z,4.40
2022-08-05T05:07:17.285Z,4.95
2022-08-05T05:09:45.585Z,5.00
2022-08-05T05:12:12.864Z,5.80
2022-08-05T05:14:49.112Z,5.25
2022-08-05T05:17:21.178Z,4.30
2022-08-05T05:19:53.916Z,5.88
2022-08-05T05:22:23.489Z,4.80
2022-08-05T05:24:56.758Z,4.03
2022-08-05T05:27:44.544Z,3.83
2022-08-05T05:30:30.554Z,4.38
2022-08-05T05:33:03.802Z,4.18
2022-08-05T05:35:45.077Z,4.57
2022-08-05T05:38:13.522Z,4.03
2022-08-05T05:40:50.078Z,3.95
2022-08-05T05:43:57.246Z,4.97
2022-08-05T05:46:17.590Z,5.22
2022-08-05T05:48:47.849Z,5.07
2022-08-05T05:51:50.632Z,4.03
2022-08-05T05:54:18.522Z,3.78
2022-08-05T05:56:47.662Z,4.68
2022-08-05T05:59:14.825Z,3.97
2022-08-05T06:01:57.492Z,4.90
2022-08-05T06:04:25.277Z,4.50
2022-08-05T06:06:52.553Z,4.18
2022-08-05T06:09:25.606Z,4.18
2022-08-05T06:12:01.035Z,4.25
2022-08-05T06:14:30.972Z,5.07
2022-08-05T06:17:01.896Z,3.50
2022-08-05T06:19:56.306Z,3.15
2022-08-05T06:22:33.352Z,4.45
2022-08-05T06:25:24.346Z,5.13
2022-08-05T06:28:11.407Z,3.60
2022-08-05T06:30:39.664Z,3.65
2022-08-05T06:33:09.918Z,3.95
2022-08-05T06:36:07.251Z,4.90
2022-08-05T06:38:36.076Z,3.55
2022-08-05T06:41:05.338Z,4.63
2022-08-05T06:43:59.304Z,4.55
2022-08-05T06:46:23.621Z,3.63
2022-08-05T06:48:58.764Z,5.57
2022-08-05T06:51:29.127Z,4.35
2022-08-05T06:54:02.441Z,3.33
2022-08-05T06:56:33.410Z,3.60
2022-08-05T06:59:09.766Z,5.13
2022-08-05T07:01:40.501Z,3.60
2022-08-05T07:04:08.255Z,3.60
2022-08-05T07:06:35.442Z,3.10
2022-08-05T07:09:04.155Z,5.35
2022-08-05T07:11:36.807Z,3.65
2022-08-05T07:14:29.243Z,3.90
2022-08-05T07:17:58.332Z,4.78
2022-08-05T07:22:41.929Z,2.50
2022-08-05T07:25:54.392Z,2.87
2022-08-05T07:28:03.863Z,4.38
2022-08-05T07:30:38.780Z,4.15
2022-08-05T07:33:10.634Z,3.75
2022-08-05T07:36:03.790Z,3.88
2022-08-05T07:38:34.925Z,2.95
2022-08-05T07:42:09.286Z,4.05
2022-08-05T07:44:00.492Z,3.97
2022-08-05T07:46:30.636Z,3.63
2022-08-05T07:49:04.909Z,4.30
2022-08-05T07:51:36.982Z,4.50
2022-08-05T07:54:09.579Z,6.55
2022-08-05T07:56:54.782Z,3.35
2022-08-05T07:59:38.109Z,5.00
2022-08-05T08:02:15.675Z,4.75
2022-08-05T08:04:46.784Z,3.65
2022-08-05T08:07:14.920Z,4.43
2022-08-05T08:09:43.448Z,3.45
2022-08-05T08:12:35.332Z,4.85
2022-08-05T08:15:02.284Z,4.80
2022-08-05T08:17:31.038Z,2.83
2022-08-05T08:20:21.496Z,2.58
2022-08-05T08:22:55.757Z,2.57
2022-08-05T08:25:27.140Z,3.28
2022-08-05T08:28:18.495Z,4.03
2022-08-05T08:30:47.829Z,3.38
2022-08-05T08:33:20.155Z,2.97
2022-08-05T08:35:52.828Z,2.35
2022-08-05T08:38:35.470Z,3.90
2022-08-05T08:41:09.464Z,3.55
2022-08-05T08:45:22.114Z,3.50
2022-08-05T08:46:27.824Z,2.63
2022-08-05T08:49:08.100Z,3.08
2022-08-05T08:52:04.052Z,2.75
2022-08-05T08:54:36.278Z,3.10
2022-08-05T08:57:11.597Z,1.65
2022-08-05T08:59:41.934Z,2.42
2022-08-05T09:02:16.659Z,3.15
2022-08-05T09:04:58.178Z,2.38
2022-08-05T09:07:39.928Z,2.95
2022-08-05T09:10:21.254Z,2.10
2022-08-05T09:12:54.921Z,2.95
2022-08-05T09:15:23.524Z,2.55
2022-08-05T09:17:53.075Z,2.75
2022-08-05T09:20:36.560Z,3.65
2022-08-05T09:23:19.810Z,2.60
2022-08-05T09:26:01.064Z,2.30
2022-08-05T09:28:33.440Z,2.25
2022-08-05T09:31:18.118Z,2.50
2022-08-05T09:34:02.507Z,1.83
2022-08-05T09:36:55.054Z,2.42
2022-08-05T09:39:39.262Z,1.67
2022-08-05T09:42:23.981Z,2.33
2022-08-05T09:44:57.481Z,3.60
2022-08-05T09:47:55.475Z,3.42
2022-08-05T09:50:38.871Z,2.17
2022-08-05T09:53:23.055Z,1.90
2022-08-05T09:56:11.383Z,3.15
2022-08-05T09:58:42.066Z,2.53
2022-08-05T10:01:14.879Z,2.78
2022-08-05T10:04:04.490Z,2.70
2022-08-05T10:06:54.664Z,3.28
2022-08-05T10:09:28.239Z,2.67
2022-08-05T10:12:18.561Z,4.90
2022-08-05T10:15:16.967Z,3.60
2022-08-05T10:17:47.540Z,2.78
2022-08-05T10:20:25.258Z,2.90
2022-08-05T10:22:52.951Z,3.93
2022-08-05T10:25:20.598Z,2.20
2022-08-05T10:28:13.381Z,4.35
2022-08-05T10:32:48.604Z,2.80
2022-08-05T10:33:28.773Z,2.60
2022-08-05T10:35:59.285Z,3.30
2022-08-05T10:38:29.629Z,2.30
2022-08-05T10:41:23.513Z,2.87
2022-08-05T10:44:05.737Z,5.30
2022-08-05T10:46:54.435Z,3.72
2022-08-05T10:49:27.470Z,2.23
2022-08-05T10:52:03.296Z,3.38
2022-08-05T10:54:56.232Z,3.97
2022-08-05T10:57:30.929Z,2.50
2022-08-05T11:00:20.867Z,3.42
2022-08-05T11:02:59.118Z,2.78
2022-08-05T11:06:04.530Z,3.03
2022-08-05T11:08:38.105Z,4.53
2022-08-05T11:11:42.055Z,2.47
2022-08-05T11:14:56.269Z,2.50
2022-08-05T11:17:59.892Z,3.50
2022-08-05T11:20:37.543Z,4.25
2022-08-05T11:23:33.366Z,2.63
2022-08-05T11:26:28.101Z,2.95
2022-08-05T11:28:56.974Z,2.95
2022-08-05T11:31:56.447Z,3.05
2022-08-05T11:34:39.428Z,1.77
2022-08-05T11:38:30.852Z,1.70
2022-08-05T11:40:00.195Z,2.40
2022-08-05T11:42:38.060Z,3.17
2022-08-05T11:45:23.140Z,4.57
2022-08-05T11:47:55.683Z,2.42
2022-08-05T11:50:23.120Z,3.03
2022-08-05T11:52:57.668Z,3.35
2022-08-05T11:55:31.978Z,3.10
2022-08-05T11:58:09.680Z,3.17
2022-08-05T12:00:41.417Z,4.20
2022-08-05T12:03:29.480Z,2.85
2022-08-05T12:06:01.837Z,3.53
2022-08-05T12:08:31.504Z,3.60
2022-08-05T12:11:05.543Z,3.13
2022-08-05T12:13:49.111Z,2.58
2022-08-05T12:16:25.585Z,3.40
2022-08-05T12:18:55.327Z,2.28
2022-08-05T12:21:34.322Z,3.55
2022-08-05T12:24:11.947Z,4.43
2022-08-05T12:26:44.633Z,3.22
2022-08-05T12:29:26.656Z,3.85
2022-08-05T12:31:56.181Z,2.63
2022-08-05T12:34:32.409Z,2.38
2022-08-05T12:37:17.369Z,2.92
2022-08-05T12:39:51.414Z,2.47
2022-08-05T12:42:20.715Z,4.50
2022-08-05T12:44:48.914Z,2.95
2022-08-05T12:47:30.443Z,3.35
2022-08-05T12:50:04.431Z,2.50
2022-08-05T12:52:41.907Z,2.57
2022-08-05T12:55:22.676Z,2.80
2022-08-05T12:58:49.718Z,2.97
2022-08-05T13:02:01.884Z,4.07
2022-08-05T13:03:32.281Z,3.70
2022-08-05T13:06:01.515Z,3.58
2022-08-05T13:08:33.023Z,3.15
2022-08-05T13:11:04.229Z,4.32
2022-08-05T13:14:06.602Z,3.15
2022-08-05T13:16:20.141Z,2.30
2022-08-05T13:18:58.356Z,4.97
2022-08-05T13:21:27.617Z,5.10
2022-08-05T13:23:55.890Z,4.85
2022-08-05T13:26:30.093Z,3.97
2022-08-05T13:28:59.324Z,4.35
2022-08-05T13:31:33.847Z,2.90
2022-08-05T13:34:21.985Z,3.00
2022-08-05T13:36:53.639Z,4.10
2022-08-05T13:40:13.591Z,4.57
2022-08-05T13:42:14.296Z,5.70
2022-08-05T13:44:46.394Z,4.35
2022-08-05T13:47:35.176Z,5.38
2022-08-05T13:50:06.779Z,3.72
2022-08-05T13:52:41.253Z,4.57
2022-08-05T13:55:09.807Z,3.42
2022-08-05T13:57:50.639Z,4.55
2022-08-05T14:00:27.673Z,4.10
2022-08-05T14:02:57.964Z,2.88
2022-08-05T14:05:48.508Z,4.28
2022-08-05T14:08:20.882Z,2.67
2022-08-05T14:10:59.678Z,4.85
2022-08-05T14:13:35.287Z,4.25
2022-08-05T14:16:07.635Z,3.13
2022-08-05T14:18:38.039Z,5.22
2022-08-05T14:22:08.816Z,4.80
2022-08-05T14:23:53.096Z,3.35
2022-08-05T14:26:38.454Z,3.22
2022-08-05T14:29:16.284Z,3.22
2022-08-05T14:32:02.805Z,3.37
2022-08-05T14:34:35.270Z,3.30
2022-08-05T14:37:04.629Z,3.03
2022-08-05T14:39:49.793Z,2.35
2022-08-05T14:42:20.892Z,1.83
2022-08-05T14:44:49.213Z,2.90
2022-08-05T14:47:16.589Z,3.40
2022-08-05T14:50:14.200Z,3.70
2022-08-05T14:52:53.127Z,2.75
2022-08-05T14:55:24.555Z,3.93
2022-08-05T14:57:54.431Z,3.40
2022-08-05T15:00:28.206Z,2.17
2022-08-05T15:02:59.217Z,3.90
2022-08-05T15:05:30.207Z,3.42
2022-08-05T15:08:16.815Z,3.67
2022-08-05T15:11:01.639Z,3.75
2022-08-05T15:13:46.002Z,3.28
2022-08-05T15:16:13.925Z,5.53
2022-08-05T15:18:43.444Z,2.70
2022-08-05T15:21:14.486Z,4.82
2022-08-05T15:23:48.169Z,3.08
2022-08-05T15:26:17.362Z,5.00
2022-08-05T15:28:59.717Z,3.33
2022-08-05T15:31:34.844Z,3.45
2022-08-05T15:34:18.918Z,3.83
2022-08-05T15:36:49.490Z,2.60
2022-08-05T15:40:58.832Z,3.47
2022-08-05T15:42:54.223Z,3.53
2022-08-05T15:44:56.070Z,3.40
2022-08-05T15:47:23.677Z,3.55
2022-08-05T15:49:59.171Z,3.58
2022-08-05T15:52:52.332Z,3.10
2022-08-05T15:55:15.457Z,3.92
2022-08-05T15:57:45.072Z,4.05
2022-08-05T16:00:13.129Z,3.60
2022-08-05T16:02:44.469Z,4.13
2022-08-05T16:05:11.916Z,3.80
2022-08-05T16:07:39.146Z,2.88
2022-08-05T16:10:13.977Z,3.58
2022-08-05T16:12:42.117Z,3.50
2022-08-05T16:15:10.307Z,3.95
2022-08-05T16:17:49.697Z,5.63
2022-08-05T16:20:25.928Z,5.22
2022-08-05T16:22:55.269Z,4.65
2022-08-05T16:25:32.072Z,2.78
2022-08-05T16:28:05.932Z,5.78
2022-08-05T16:30:34.224Z,4.50
2022-08-05T16:33:03.730Z,4.95
2022-08-05T16:35:32.365Z,5.20
2022-08-05T16:38:15.291Z,4.40
2022-08-05T16:40:47.902Z,5.60
2022-08-05T16:43:25.287Z,3.30
2022-08-05T16:46:05.379Z,4.30
2022-08-05T16:48:36.776Z,6.68
2022-08-05T16:51:08.909Z,4.38
2022-08-05T16:54:05.124Z,5.45
2022-08-05T16:56:24.678Z,4.35
2022-08-05T16:58:52.134Z,3.42
2022-08-05T17:01:19.361Z,5.63
2022-08-05T17:03:47.061Z,4.13
2022-08-05T17:06:16.580Z,3.78
2022-08-05T17:08:52.449Z,6.13
2022-08-05T17:11:23.409Z,5.07
2022-08-05T17:13:54.739Z,4.47
2022-08-05T17:16:37.349Z,3.80
2022-08-05T17:19:07.775Z,4.63
2022-08-05T17:21:39.399Z,3.80
2022-08-05T17:24:18.726Z,4.93
2022-08-05T17:26:57.763Z,7.80
2022-08-05T17:29:33.338Z,3.65
2022-08-05T17:32:11.687Z,5.30
2022-08-05T17:34:47.713Z,4.15
2022-08-05T17:37:39.800Z,4.57
2022-08-05T17:40:11.035Z,5.07
2022-08-05T17:42:42.842Z,6.40
2022-08-05T17:45:20.910Z,4.72
2022-08-05T17:47:54.037Z,5.68
2022-08-05T17:50:30.044Z,4.15
2022-08-05T17:52:59.870Z,6.45
2022-08-05T17:55:38.125Z,5.57
2022-08-05T17:58:12.893Z,3.95
2022-08-05T18:00:47.508Z,7.35
2022-08-05T18:06:11.703Z,5.70
2022-08-05T18:08:44.825Z,5.70
2022-08-05T18:11:24.218Z,4.03
2022-08-05T18:14:03.671Z,3.22
2022-08-05T18:16:35.559Z,4.90
2022-08-05T18:19:22.785Z,6.45
2022-08-05T18:22:08.805Z,7.40
2022-08-05T18:24:39.561Z,4.53
2022-08-05T18:27:12.592Z,4.65
2022-08-05T18:29:52.001Z,5.22
2022-08-05T18:32:29.681Z,4.63
2022-08-05T18:34:57.529Z,6.43
2022-08-05T18:37:34.019Z,6.13
2022-08-05T18:40:33.653Z,3.85
2022-08-05T18:42:59.480Z,5.50
2022-08-05T18:45:41.552Z,6.25
2022-08-05T18:48:11.288Z,5.72
2022-08-05T18:52:04.446Z,7.82
2022-08-05T18:53:50.921Z,5.05
2022-08-05T18:56:21.706Z,6.63
2022-08-05T18:58:54.799Z,4.50
2022-08-05T19:01:33.115Z,3.42
2022-08-05T19:04:00.841Z,6.18
2022-08-05T19:06:34.149Z,5.03
2022-08-05T19:09:04.616Z,5.87
2022-08-05T19:11:59.340Z,4.93
2022-08-05T19:14:53.252Z,6.03
2022-08-05T19:17:09.122Z,5.13
2022-08-05T19:19:44.103Z,5.83
2022-08-05T19:22:17.268Z,7.82
2022-08-05T19:24:54.372Z,7.07
2022-08-05T19:27:30.206Z,5.07
2022-08-05T19:29:58.386Z,5.45
2022-08-05T19:32:25.908Z,3.80
2022-08-05T19:34:56.939Z,4.70
2022-08-05T19:37:29.862Z,5.38
2022-08-05T19:40:15.385Z,5.13
2022-08-05T19:42:42.702Z,4.70
2022-08-05T19:45:30.503Z,5.15
2022-08-05T19:48:03.950Z,7.22
2022-08-05T19:50:32.628Z,4.55
2022-08-05T19:53:09.576Z,6.53
2022-08-05T19:56:14.955Z,6.97
2022-08-05T19:58:29.221Z,7.40
2022-08-05T20:00:57.851Z,5.82
2022-08-05T20:03:26.091Z,6.38
2022-08-05T20:05:56.472Z,6.78
2022-08-05T20:08:31.327Z,6.32
2022-08-05T20:10:58.589Z,6.93
2022-08-05T20:13:54.778Z,6.20
2022-08-05T20:16:15.994Z,5.47
2022-08-05T20:18:46.932Z,6.88
2022-08-05T20:21:22.929Z,6.68
2022-08-05T20:23:53.051Z,5.57
2022-08-05T20:26:21.601Z,6.07
2022-08-05T20:28:53.766Z,4.95
2022-08-05T20:31:36.818Z,5.17
2022-08-05T20:34:11.502Z,5.03
2022-08-05T20:36:44.964Z,5.50
2022-08-05T20:39:16.348Z,5.80
2022-08-05T20:41:45.239Z,5.18
2022-08-05T20:44:29.803Z,6.93
2022-08-05T20:47:04.125Z,5.45
2022-08-05T20:49:37.837Z,6.38
2022-08-05T20:52:07.888Z,5.87
2022-08-05T20:54:43.377Z,5.97
2022-08-05T20:57:24.532Z,6.13
2022-08-05T21:00:19.757Z,6.15
2022-08-05T21:02:51.550Z,5.85
2022-08-05T21:05:19.413Z,8.57
2022-08-05T21:07:52.267Z,9.35
2022-08-05T21:10:20.703Z,7.40
2022-08-05T21:12:58.142Z,6.07
2022-08-05T21:15:38.735Z,6.40
2022-08-05T21:18:05.956Z,5.25
2022-08-05T21:20:34.397Z,7.82
2022-08-05T21:23:03.908Z,7.43
2022-08-05T21:25:33.851Z,5.43
2022-08-05T21:28:02.704Z,6.13
2022-08-05T21:30:30.012Z,7.87
2022-08-05T21:32:57.251Z,6.27
2022-08-05T21:35:29.738Z,5.30
2022-08-05T21:37:58.085Z,8.68
2022-08-05T21:40:25.639Z,6.35
2022-08-05T21:42:53.916Z,5.60
2022-08-05T21:45:25.071Z,7.93
2022-08-05T21:48:09.706Z,8.48
2022-08-05T21:50:37.448Z,6.93
2022-08-05T21:53:16.416Z,7.47
2022-08-05T21:56:05.423Z,8.63
2022-08-05T21:58:32.841Z,6.50
2022-08-05T22:01:04.912Z,6.95
2022-08-05T22:03:51.872Z,7.72
2022-08-05T22:06:22.944Z,5.53
2022-08-05T22:09:02.547Z,6.53
2022-08-05T22:11:41.363Z,6.30
2022-08-05T22:14:32.981Z,5.55
2022-08-05T22:17:03.093Z,5.10
2022-08-05T22:20:00.723Z,5.10
2022-08-05T22:22:27.209Z,6.30
2022-08-05T22:25:21.137Z,7.78
2022-08-05T22:28:09.029Z,5.47
2022-08-05T22:30:44.313Z,4.80
2022-08-05T22:33:55.457Z,7.63
2022-08-05T22:36:14.470Z,7.20
2022-08-05T22:38:48.112Z,4.17
2022-08-05T22:42:04.894Z,5.75
2022-08-05T22:44:05.190Z,6.13
2022-08-05T22:46:32.548Z,7.38
2022-08-05T22:48:59.926Z,4.93
2022-08-05T22:52:02.589Z,6.07
2022-08-05T22:54:14.576Z,3.70
2022-08-05T22:56:41.776Z,5.50
2022-08-05T22:59:46.466Z,3.45
2022-08-05T23:02:05.580Z,4.55
2022-08-05T23:04:35.251Z,4.73
2022-08-05T23:07:03.403Z,5.10
2022-08-05T23:09:58.180Z,4.80
2022-08-05T23:12:20.200Z,4.60
2022-08-05T23:14:51.190Z,5.90
2022-08-05T23:17:34.656Z,4.63
2022-08-05T23:20:16.500Z,5.63
2022-08-05T23:22:48.604Z,3.88
2022-08-05T23:25:53.302Z,4.15
2022-08-05T23:28:06.875Z,5.25
2022-08-05T23:30:40.585Z,5.60
2022-08-05T23:33:22.037Z,5.97
2022-08-05T23:35:56.136Z,6.05
2022-08-05T23:38:25.780Z,3.95
2022-08-05T23:40:53.143Z,4.35
2022-08-05T23:43:24.797Z,4.97
2022-08-05T23:46:19.665Z,3.80
2022-08-05T23:49:01.171Z,5.45
2022-08-05T23:51:53.414Z,4.00
2022-08-05T23:54:30.256Z,4.68
2022-08-05T23:57:04.140Z,4.40
